Atlanta, MI (49709)

3:10 AM EDT on July 26, 2016 (GMT -0400)
Moon Lk | | Change Station

Elev 1240 ft 44.84 °N, 84.26 °W | Updated 12 seconds ago

Scattered Clouds
Scattered Clouds
58.5 °F
Feels Like 58.5 °F
N
0.0
Wind Variable Wind from East
Gusts 0.0 mph

Today
High -- | Low -- °F
--% Chance of Precip.
Yesterday
High -- | Low -- °F
Precip. -- in
Pressure 30.03 in
Visibility 10.0 miles
Clouds Scattered Clouds 6000 ft
Dew Point 53 °F
Humidity 83%
Rainfall 0.00 in
Snow Depth Not available.
6:15 AM 9:09 PM
Waning Gibbous, 57% visible
METAR KGLR 260653Z AUTO 25003KT 10SM SCT060 17/13 A3004 RMK AO2 SLP167 T01670133
Pressure 30.03 in
Visibility 10.0 miles
Clouds Scattered Clouds 6000 ft
Dew Point 53 °F
Humidity 83%
Rainfall 0.00 in
Snow Depth Not available.
6:15 AM 9:09 PM
Waning Gibbous, 57% visible
METAR KGLR 260653Z AUTO 25003KT 10SM SCT060 17/13 A3004 RMK AO2 SLP167 T01670133

10-Day Weather Forecast

Almanac

Astronomy

Jul. 26, 2016 Rise Set
Actual Time
Civil Twilight
Nautical Twilight
Astronomical Twilight
Moon
Length of Visible Light
Length of Day
Tomorrow will be .
, % of the Moon is Illuminated

Today's Extremes

State Highs State Lows

Community

WunderPhotos

Upload Photos

1,927,552 photos uploaded!

WunderBlog® & News

Nearby

Air Quality

  Air Quality AQ Index Pollutant
Not available.

Snow Depth

Station Depth Elevation

Earthquake Activity

City Distance Mag. Time & Date
Minimum magnitude displayed is 2.5.

Coastal Water Temperatures

Place Temperature

Stations

Nearby Weather Stations

Station Location Temp. Windchill Dew Point Humidity Wind Precip. Elev Updated Type
                   

Watches & Warnings

There are currently no watches in effect.